Rosanna A — ILTL — position and weather

sailwx.info

Track history (hours):
 
Tides and Currents Weather Stations Pressure Air Temp Water Temp Dewpoint Dewpoint Depression Visibility Wind Speed Wind Dir Waves Ship Positions

Rosanna A

Last reported at 2019-Feb-19 23:44 UTC. Time now 2019-Feb-21 16:02 UTC.
Position N 40°43' E 013°46'.

Length 63 m; draft 4.8 m.

Type: Ship. MMSI: 247508000.

Date/timePositionNaut miles runAvg speedWind from/ knotsBaromVisibWave heightAir tempDewpointWater temp
2019-Feb-19 23:44N 40°43' E 013°46'2 6.8
2019-Feb-19 23:24N 40°42' E 013°48'3 6.8
2019-Feb-19 23:00N 40°40' E 013°51'3 6.7
2019-Feb-19 22:30N 40°39' E 013°56'3 6.6
2019-Feb-19 22:00N 40°40' E 013°60'4 7.2
2019-Feb-19 21:30N 40°42' E 014°04'4 7.3
2019-Feb-19 21:00N 40°45' E 014°08'4 7.5
2019-Feb-19 20:30N 40°47' E 014°12'4 7.4
2019-Feb-19 20:00N 40°49' E 014°16'2 1.1
2019-Feb-19 18:34N 40°51' E 014°16'0 0.0
2019-Feb-19 18:19N 40°51' E 014°16'0 0.0
2019-Feb-19 17:49N 40°51' E 014°16'0 0.0
2019-Feb-19 17:22N 40°51' E 014°16'0 0.0
2019-Feb-19 16:49N 40°51' E 014°16'0 0.0
2019-Feb-19 16:19N 40°51' E 014°16'0 0.0
2019-Feb-19 15:52N 40°51' E 014°16'0 0.0
2019-Feb-19 15:22N 40°51' E 014°16'0 0.0
2019-Feb-19 14:49N 40°51' E 014°16'0 0.0
2019-Feb-19 14:25N 40°51' E 014°16'0 0.0
2019-Feb-19 13:40N 40°51' E 014°16'0 0.0
2019-Feb-19 13:22N 40°51' E 014°16'0 0.0
2019-Feb-19 12:58N 40°51' E 014°16'0 0.0
2019-Feb-19 12:28N 40°51' E 014°16'0 0.0
2019-Feb-19 11:55N 40°51' E 014°16'0 0.0
2019-Feb-19 11:25N 40°51' E 014°16'0 0.0
2019-Feb-19 10:55N 40°51' E 014°16'0 0.0
2019-Feb-19 10:25N 40°51' E 014°16'0 0.0
2019-Feb-19 09:31N 40°51' E 014°16'0 0.0
2019-Feb-19 09:28N 40°51' E 014°16'0 0.0
2019-Feb-19 08:13N 40°51' E 014°16'0 0.0
2019-Feb-19 07:43N 40°51' E 014°16'0 0.0
2019-Feb-19 07:28N 40°51' E 014°16'0 0.0
2019-Feb-19 06:49N 40°51' E 014°16'0 0.0
2019-Feb-19 06:28N 40°51' E 014°16'0 0.0
2019-Feb-19 05:49N 40°51' E 014°16'0 0.0
2019-Feb-19 05:19N 40°51' E 014°16'0 0.0
2019-Feb-19 04:52N 40°51' E 014°16'0 0.0
2019-Feb-19 04:22N 40°51' E 014°16'0 0.0
2019-Feb-19 03:49N 40°51' E 014°16'0 0.0
2019-Feb-19 03:22N 40°51' E 014°16'0 0.0
2019-Feb-19 02:52N 40°51' E 014°16'0 0.0
2019-Feb-19 02:22N 40°51' E 014°16'0 0.0
2019-Feb-19 01:55N 40°51' E 014°16'0 0.0
2019-Feb-19 01:25N 40°51' E 014°16'0 0.0
2019-Feb-19 00:55N 40°51' E 014°16'0 0.0
2019-Feb-19 00:25N 40°51' E 014°16'0 0.0
2019-Feb-18 23:55N 40°51' E 014°16'0 0.0
2019-Feb-18 23:25N 40°51' E 014°16'0 0.0
2019-Feb-18 22:55N 40°51' E 014°16'0 0.0
2019-Feb-18 22:28N 40°51' E 014°16'0 0.0
2019-Feb-18 21:58N 40°51' E 014°16'0 0.0
2019-Feb-18 21:28N 40°51' E 014°16'0 0.0
2019-Feb-18 20:58N 40°51' E 014°16'0 0.0
2019-Feb-18 20:28N 40°51' E 014°16'0 0.0
2019-Feb-18 19:55N 40°51' E 014°16'0 0.0
2019-Feb-18 19:16N 40°51' E 014°16'0 0.0
2019-Feb-18 18:58N 40°51' E 014°16'0 0.0
2019-Feb-18 18:28N 40°51' E 014°16'0 0.0
2019-Feb-18 17:58N 40°51' E 014°16'0 0.0
2019-Feb-18 17:28N 40°51' E 014°16'0 0.0
2019-Feb-18 16:58N 40°51' E 014°16'0 0.0
2019-Feb-18 16:19N 40°51' E 014°16'0 0.0
2019-Feb-18 15:34N 40°51' E 014°16'0 0.0
2019-Feb-18 15:19N 40°51' E 014°16'0 0.0
2019-Feb-18 14:49N 40°51' E 014°16'0 0.0
2019-Feb-18 14:10N 40°51' E 014°16'0 0.0
2019-Feb-18 13:52N 40°51' E 014°16'0 0.0
2019-Feb-18 13:25N 40°51' E 014°16'0 0.0
2019-Feb-18 11:34N 40°51' E 014°16'0 0.0
2019-Feb-18 11:28N 40°51' E 014°16'0 0.0
2019-Feb-18 10:58N 40°51' E 014°16'0 0.0
2019-Feb-18 10:01N 40°51' E 014°16'0 0.0
2019-Feb-18 09:58N 40°51' E 014°16'0 0.0
2019-Feb-18 09:16N 40°51' E 014°16'0 0.0
2019-Feb-18 08:04N 40°51' E 014°16'0 0.0
2019-Feb-18 07:52N 40°51' E 014°16'0 0.0
2019-Feb-18 07:30N 40°51' E 014°16'2 4.0
2019-Feb-18 07:00N 40°49' E 014°17'4 7.7
2019-Feb-18 06:30N 40°46' E 014°14'4 8.6
2019-Feb-18 06:00N 40°43' E 014°10'4 8.8
2019-Feb-18 05:30N 40°41' E 014°05'4 8.8
2019-Feb-18 05:00N 40°40' E 013°59'4 8.8
2019-Feb-18 04:30N 40°40' E 013°54'4 8.4
2019-Feb-18 04:00N 40°42' E 013°48'5 8.8
2019-Feb-18 03:28N 40°44' E 013°43'4 9.0
2019-Feb-18 03:00N 40°47' E 013°39'12 8.7
2019-Feb-18 01:34N 40°51' E 013°23'  
2019-Feb-15 20:41N 40°44' E 013°41'2 7.4
2019-Feb-15 20:27N 40°43' E 013°43'4 7.1
2019-Feb-15 19:51N 40°41' E 013°48'2 6.9
2019-Feb-15 19:30N 40°40' E 013°51'4 7.2
2019-Feb-15 19:00N 40°40' E 013°56'4 7.3
2019-Feb-15 18:30N 40°42' E 014°00'4 7.3
2019-Feb-15 18:00N 40°43' E 014°05'4 7.3
2019-Feb-15 17:30N 40°45' E 014°09'4 7.5
2019-Feb-15 17:00N 40°47' E 014°13'4 7.4
2019-Feb-15 16:30N 40°50' E 014°16'1 1.7
2019-Feb-15 15:51N 40°51' E 014°16'0 0.0
2019-Feb-15 14:48N 40°51' E 014°16'0 0.0
2019-Feb-15 14:06N 40°51' E 014°16'0 0.0
2019-Feb-15 13:54N 40°51' E 014°16'0 0.0
2019-Feb-15 13:24N 40°51' E 014°16'0 0.0
2019-Feb-15 12:51N 40°51' E 014°16'0 0.0
2019-Feb-15 12:24N 40°51' E 014°16'0 0.0
2019-Feb-15 11:57N 40°51' E 014°16'0 0.0
2019-Feb-15 11:27N 40°51' E 014°16'0 0.0
2019-Feb-15 10:57N 40°51' E 014°16'0 0.0
2019-Feb-15 10:27N 40°51' E 014°16'0 0.0
2019-Feb-15 09:54N 40°51' E 014°16'0 0.0
2019-Feb-15 09:09N 40°51' E 014°16'0 0.0
2019-Feb-15 08:57N 40°51' E 014°16'0 0.0
2019-Feb-15 08:27N 40°51' E 014°16'0 0.0
2019-Feb-15 08:00N 40°51' E 014°16'0 0.0
2019-Feb-15 07:30N 40°50' E 014°16'2 4.3
2019-Feb-15 07:00N 40°49' E 014°17'3 6.1
2019-Feb-15 06:30N 40°47' E 014°15'4 8.0
2019-Feb-15 06:00N 40°44' E 014°11'4 8.1
2019-Feb-15 05:30N 40°43' E 014°06'4 8.1
2019-Feb-15 04:59N 40°41' E 014°01'4 8.2
2019-Feb-15 04:30N 40°39' E 013°56'4 8.0
2019-Feb-15 04:00N 40°39' E 013°50'4 8.5
2019-Feb-15 03:30N 40°42' E 013°46'7 8.3
2019-Feb-15 02:39N 40°46' E 013°38'1 8.0
2019-Feb-15 02:30N 40°47' E 013°37'4 8.1
2019-Feb-15 02:00N 40°49' E 013°33'4 8.0
2019-Feb-15 01:30N 40°50' E 013°28'5 8.2
2019-Feb-15 00:56N 40°51' E 013°22'4 8.0
2019-Feb-15 00:29N 40°52' E 013°17'  
2019-Feb-12 11:28N 40°44' E 013°43'3 6.9
2019-Feb-12 10:59N 40°42' E 013°47'3 6.8
2019-Feb-12 10:30N 40°41' E 013°51'3 6.7
2019-Feb-12 10:00N 40°40' E 013°55'4 7.4
2019-Feb-12 09:30N 40°41' E 013°60'4 7.5
2019-Feb-12 09:00N 40°43' E 014°04'4 7.4
2019-Feb-12 08:30N 40°44' E 014°09'4 7.7
2019-Feb-12 08:00N 40°47' E 014°13'4 7.7
2019-Feb-12 07:30N 40°50' E 014°16'1 1.8
2019-Feb-12 06:55N 40°51' E 014°16'0 0.0
2019-Feb-12 06:25N 40°51' E 014°16'0 0.0
2019-Feb-12 05:52N 40°51' E 014°16'0 0.0
2019-Feb-12 05:22N 40°51' E 014°16'0 0.0
2019-Feb-12 04:58N 40°51' E 014°16'0 0.0
2019-Feb-12 04:28N 40°51' E 014°16'0 0.0
2019-Feb-12 03:40N 40°51' E 014°16'0 0.0
2019-Feb-12 03:13N 40°51' E 014°16'0 0.0
2019-Feb-12 02:55N 40°51' E 014°16'0 0.0
2019-Feb-12 02:25N 40°51' E 014°16'0 0.0
2019-Feb-12 01:58N 40°51' E 014°16'0 0.0
2019-Feb-12 01:13N 40°51' E 014°16'0 0.0
2019-Feb-12 00:58N 40°51' E 014°16'0 0.0
2019-Feb-12 00:01N 40°51' E 014°16'0 0.0
2019-Feb-11 23:49N 40°51' E 014°16'0 0.0
2019-Feb-11 23:19N 40°51' E 014°16'0 0.0
2019-Feb-11 22:49N 40°51' E 014°16'0 0.0
2019-Feb-11 22:19N 40°51' E 014°16'0 0.0
2019-Feb-11 21:49N 40°51' E 014°16'0 0.0
2019-Feb-11 21:19N 40°51' E 014°16'0 0.0
2019-Feb-11 20:52N 40°51' E 014°16'0 0.0
2019-Feb-11 20:19N 40°51' E 014°16'0 0.0
2019-Feb-11 19:52N 40°51' E 014°16'0 0.0
2019-Feb-11 19:19N 40°51' E 014°16'0 0.0
2019-Feb-11 18:52N 40°51' E 014°16'0 0.0
2019-Feb-11 18:25N 40°51' E 014°16'0 0.0
2019-Feb-11 17:55N 40°51' E 014°16'0 0.0
2019-Feb-11 17:25N 40°51' E 014°16'0 0.0
2019-Feb-11 16:55N 40°51' E 014°16'0 0.0
2019-Feb-11 16:25N 40°51' E 014°16'0 0.0
2019-Feb-11 15:55N 40°51' E 014°16'0 0.0
2019-Feb-11 15:25N 40°51' E 014°16'0 0.0
2019-Feb-11 14:52N 40°51' E 014°16'0 0.0
2019-Feb-11 14:28N 40°51' E 014°16'0 0.0
2019-Feb-11 13:43N 40°51' E 014°16'0 0.0
2019-Feb-11 13:28N 40°51' E 014°16'0 0.0
2019-Feb-11 12:55N 40°51' E 014°16'0 0.0
2019-Feb-11 12:28N 40°51' E 014°16'0 0.0
2019-Feb-11 11:58N 40°51' E 014°16'0 0.0
2019-Feb-11 11:28N 40°51' E 014°16'0 0.0
2019-Feb-11 10:46N 40°51' E 014°16'0 0.0
2019-Feb-11 10:28N 40°51' E 014°16'0 0.0
2019-Feb-11 09:49N 40°51' E 014°16'0 0.0
2019-Feb-11 09:28N 40°51' E 014°16'0 0.0
2019-Feb-11 08:49N 40°51' E 014°16'0 0.0
2019-Feb-11 08:16N 40°51' E 014°16'0 0.0
2019-Feb-11 07:49N 40°51' E 014°16'0 0.0
2019-Feb-11 07:19N 40°51' E 014°16'0 0.0
2019-Feb-11 06:49N 40°51' E 014°16'0 0.0
2019-Feb-11 05:49N 40°51' E 014°16'0 0.0
2019-Feb-11 05:19N 40°51' E 014°16'0 0.0
2019-Feb-11 04:52N 40°51' E 014°16'0 0.0
2019-Feb-11 04:25N 40°51' E 014°16'0 0.0
2019-Feb-11 03:55N 40°51' E 014°16'0 0.0
2019-Feb-11 03:25N 40°51' E 014°16'0 0.0
2019-Feb-11 02:55N 40°51' E 014°16'0 0.0
2019-Feb-11 02:25N 40°51' E 014°16'0 0.0
2019-Feb-11 01:55N 40°51' E 014°16'0 0.0
2019-Feb-11 01:28N 40°51' E 014°16'0 0.0
2019-Feb-11 00:58N 40°51' E 014°16'0 0.0
2019-Feb-11 00:28N 40°51' E 014°16'0 0.0
2019-Feb-10 23:58N 40°51' E 014°16'0 0.0
2019-Feb-10 23:28N 40°51' E 014°16'0 0.0
2019-Feb-10 22:58N 40°51' E 014°16'0 0.0
2019-Feb-10 22:25N 40°51' E 014°16'0 0.0
2019-Feb-10 21:58N 40°51' E 014°16'0 0.0
2019-Feb-10 21:28N 40°51' E 014°16'0 0.0
2019-Feb-10 20:58N 40°51' E 014°16'0 0.0
2019-Feb-10 20:28N 40°51' E 014°16'0 0.0
2019-Feb-10 19:58N 40°51' E 014°16'0 0.0
2019-Feb-10 19:28N 40°51' E 014°16'0 0.0
2019-Feb-10 18:46N 40°51' E 014°16'0 0.0
2019-Feb-10 18:25N 40°51' E 014°16'0 0.0
2019-Feb-10 17:55N 40°51' E 014°16'0 0.0
2019-Feb-10 17:25N 40°51' E 014°16'0 0.0
2019-Feb-10 16:55N 40°51' E 014°16'0 0.0
2019-Feb-10 16:25N 40°51' E 014°16'0 0.0
2019-Feb-10 15:58N 40°51' E 014°16'0 0.0
2019-Feb-10 15:28N 40°51' E 014°16'0 0.0
2019-Feb-10 14:43N 40°51' E 014°16'0 0.0
2019-Feb-10 14:25N 40°51' E 014°16'0 0.0
2019-Feb-10 13:46N 40°51' E 014°16'0 0.0
2019-Feb-10 13:25N 40°51' E 014°16'0 0.0
2019-Feb-10 12:55N 40°51' E 014°16'0 0.0
2019-Feb-10 12:28N 40°51' E 014°16'0 0.0
2019-Feb-10 11:58N 40°51' E 014°16'0 0.0
2019-Feb-10 11:19N 40°51' E 014°16'0 0.0
2019-Feb-10 10:58N 40°51' E 014°16'0 0.0
2019-Feb-10 10:28N 40°51' E 014°16'0 0.0
2019-Feb-10 09:49N 40°51' E 014°16'0 0.0
2019-Feb-10 09:19N 40°51' E 014°16'0 0.0
2019-Feb-10 08:49N 40°51' E 014°16'0 0.0
2019-Feb-10 08:19N 40°51' E 014°16'0 0.0
2019-Feb-10 07:46N 40°51' E 014°16'0 0.0
2019-Feb-10 07:22N 40°51' E 014°16'0 0.0
2019-Feb-10 07:01N 40°51' E 014°16'2 3.7
2019-Feb-10 06:30N 40°49' E 014°17'3 6.9
2019-Feb-10 06:01N 40°46' E 014°15'4 7.2
2019-Feb-10 05:31N 40°45' E 014°11'4 7.2
2019-Feb-10 05:00N 40°43' E 014°06'4 7.3
2019-Feb-10 04:31N 40°41' E 014°02'4 7.1
2019-Feb-10 04:00N 40°40' E 013°58'3 6.8
2019-Feb-10 03:31N 40°40' E 013°53'3 6.6
2019-Feb-10 03:00N 40°41' E 013°49'3 6.8
2019-Feb-10 02:30N 40°43' E 013°45'5 6.7
2019-Feb-10 01:49N 40°45' E 013°40'2 6.7
2019-Feb-10 01:30N 40°46' E 013°38'4 6.8
2019-Feb-10 00:58N 40°48' E 013°33'  
Track history (hours):
 
Tides and Currents Weather Stations Pressure Air Temp Water Temp Dewpoint Dewpoint Depression Visibility Wind Speed Wind Dir Waves Ship Positions

Rosanna A

Last reported at 2019-Feb-19 23:44 UTC. Time now 2019-Feb-21 16:02 UTC.
Position N 40°43' E 013°46'.

Length 63 m; draft 4.8 m.

Type: Ship. MMSI: 247508000.

Date/timePositionNaut miles runAvg speedWind from/ knotsBaromVisibWave heightAir tempDewpointWater temp
2019-Feb-19 23:44N 40°43' E 013°46'2 6.8
2019-Feb-19 23:24N 40°42' E 013°48'3 6.8
2019-Feb-19 23:00N 40°40' E 013°51'3 6.7
2019-Feb-19 22:30N 40°39' E 013°56'3 6.6
2019-Feb-19 22:00N 40°40' E 013°60'4 7.2
2019-Feb-19 21:30N 40°42' E 014°04'4 7.3
2019-Feb-19 21:00N 40°45' E 014°08'4 7.5
2019-Feb-19 20:30N 40°47' E 014°12'4 7.4
2019-Feb-19 20:00N 40°49' E 014°16'2 1.1
2019-Feb-19 18:34N 40°51' E 014°16'0 0.0
2019-Feb-19 18:19N 40°51' E 014°16'0 0.0
2019-Feb-19 17:49N 40°51' E 014°16'0 0.0
2019-Feb-19 17:22N 40°51' E 014°16'0 0.0
2019-Feb-19 16:49N 40°51' E 014°16'0 0.0
2019-Feb-19 16:19N 40°51' E 014°16'0 0.0
2019-Feb-19 15:52N 40°51' E 014°16'0 0.0
2019-Feb-19 15:22N 40°51' E 014°16'0 0.0
2019-Feb-19 14:49N 40°51' E 014°16'0 0.0
2019-Feb-19 14:25N 40°51' E 014°16'0 0.0
2019-Feb-19 13:40N 40°51' E 014°16'0 0.0
2019-Feb-19 13:22N 40°51' E 014°16'0 0.0
2019-Feb-19 12:58N 40°51' E 014°16'0 0.0
2019-Feb-19 12:28N 40°51' E 014°16'0 0.0
2019-Feb-19 11:55N 40°51' E 014°16'0 0.0
2019-Feb-19 11:25N 40°51' E 014°16'0 0.0
2019-Feb-19 10:55N 40°51' E 014°16'0 0.0
2019-Feb-19 10:25N 40°51' E 014°16'0 0.0
2019-Feb-19 09:31N 40°51' E 014°16'0 0.0
2019-Feb-19 09:28N 40°51' E 014°16'0 0.0
2019-Feb-19 08:13N 40°51' E 014°16'0 0.0
2019-Feb-19 07:43N 40°51' E 014°16'0 0.0
2019-Feb-19 07:28N 40°51' E 014°16'0 0.0
2019-Feb-19 06:49N 40°51' E 014°16'0 0.0
2019-Feb-19 06:28N 40°51' E 014°16'0 0.0
2019-Feb-19 05:49N 40°51' E 014°16'0 0.0
2019-Feb-19 05:19N 40°51' E 014°16'0 0.0
2019-Feb-19 04:52N 40°51' E 014°16'0 0.0
2019-Feb-19 04:22N 40°51' E 014°16'0 0.0
2019-Feb-19 03:49N 40°51' E 014°16'0 0.0
2019-Feb-19 03:22N 40°51' E 014°16'0 0.0
2019-Feb-19 02:52N 40°51' E 014°16'0 0.0
2019-Feb-19 02:22N 40°51' E 014°16'0 0.0
2019-Feb-19 01:55N 40°51' E 014°16'0 0.0
2019-Feb-19 01:25N 40°51' E 014°16'0 0.0
2019-Feb-19 00:55N 40°51' E 014°16'0 0.0
2019-Feb-19 00:25N 40°51' E 014°16'0 0.0
2019-Feb-18 23:55N 40°51' E 014°16'0 0.0
2019-Feb-18 23:25N 40°51' E 014°16'0 0.0
2019-Feb-18 22:55N 40°51' E 014°16'0 0.0
2019-Feb-18 22:28N 40°51' E 014°16'0 0.0
2019-Feb-18 21:58N 40°51' E 014°16'0 0.0
2019-Feb-18 21:28N 40°51' E 014°16'0 0.0
2019-Feb-18 20:58N 40°51' E 014°16'0 0.0
2019-Feb-18 20:28N 40°51' E 014°16'0 0.0
2019-Feb-18 19:55N 40°51' E 014°16'0 0.0
2019-Feb-18 19:16N 40°51' E 014°16'0 0.0
2019-Feb-18 18:58N 40°51' E 014°16'0 0.0
2019-Feb-18 18:28N 40°51' E 014°16'0 0.0
2019-Feb-18 17:58N 40°51' E 014°16'0 0.0
2019-Feb-18 17:28N 40°51' E 014°16'0 0.0
2019-Feb-18 16:58N 40°51' E 014°16'0 0.0
2019-Feb-18 16:19N 40°51' E 014°16'0 0.0
2019-Feb-18 15:34N 40°51' E 014°16'0 0.0
2019-Feb-18 15:19N 40°51' E 014°16'0 0.0
2019-Feb-18 14:49N 40°51' E 014°16'0 0.0
2019-Feb-18 14:10N 40°51' E 014°16'0 0.0
2019-Feb-18 13:52N 40°51' E 014°16'0 0.0
2019-Feb-18 13:25N 40°51' E 014°16'0 0.0
2019-Feb-18 11:34N 40°51' E 014°16'0 0.0
2019-Feb-18 11:28N 40°51' E 014°16'0 0.0
2019-Feb-18 10:58N 40°51' E 014°16'0 0.0
2019-Feb-18 10:01N 40°51' E 014°16'0 0.0
2019-Feb-18 09:58N 40°51' E 014°16'0 0.0
2019-Feb-18 09:16N 40°51' E 014°16'0 0.0
2019-Feb-18 08:04N 40°51' E 014°16'0 0.0
2019-Feb-18 07:52N 40°51' E 014°16'0 0.0
2019-Feb-18 07:30N 40°51' E 014°16'2 4.0
2019-Feb-18 07:00N 40°49' E 014°17'4 7.7
2019-Feb-18 06:30N 40°46' E 014°14'4 8.6
2019-Feb-18 06:00N 40°43' E 014°10'4 8.8
2019-Feb-18 05:30N 40°41' E 014°05'4 8.8
2019-Feb-18 05:00N 40°40' E 013°59'4 8.8
2019-Feb-18 04:30N 40°40' E 013°54'4 8.4
2019-Feb-18 04:00N 40°42' E 013°48'5 8.8
2019-Feb-18 03:28N 40°44' E 013°43'4 9.0
2019-Feb-18 03:00N 40°47' E 013°39'12 8.7
2019-Feb-18 01:34N 40°51' E 013°23'  
2019-Feb-15 20:41N 40°44' E 013°41'2 7.4
2019-Feb-15 20:27N 40°43' E 013°43'4 7.1
2019-Feb-15 19:51N 40°41' E 013°48'2 6.9
2019-Feb-15 19:30N 40°40' E 013°51'4 7.2
2019-Feb-15 19:00N 40°40' E 013°56'4 7.3
2019-Feb-15 18:30N 40°42' E 014°00'4 7.3
2019-Feb-15 18:00N 40°43' E 014°05'4 7.3
2019-Feb-15 17:30N 40°45' E 014°09'4 7.5
2019-Feb-15 17:00N 40°47' E 014°13'4 7.4
2019-Feb-15 16:30N 40°50' E 014°16'1 1.7
2019-Feb-15 15:51N 40°51' E 014°16'0 0.0
2019-Feb-15 14:48N 40°51' E 014°16'0 0.0
2019-Feb-15 14:06N 40°51' E 014°16'0 0.0
2019-Feb-15 13:54N 40°51' E 014°16'0 0.0
2019-Feb-15 13:24N 40°51' E 014°16'0 0.0
2019-Feb-15 12:51N 40°51' E 014°16'0 0.0
2019-Feb-15 12:24N 40°51' E 014°16'0 0.0
2019-Feb-15 11:57N 40°51' E 014°16'0 0.0
2019-Feb-15 11:27N 40°51' E 014°16'0 0.0
2019-Feb-15 10:57N 40°51' E 014°16'0 0.0
2019-Feb-15 10:27N 40°51' E 014°16'0 0.0
2019-Feb-15 09:54N 40°51' E 014°16'0 0.0
2019-Feb-15 09:09N 40°51' E 014°16'0 0.0
2019-Feb-15 08:57N 40°51' E 014°16'0 0.0
2019-Feb-15 08:27N 40°51' E 014°16'0 0.0
2019-Feb-15 08:00N 40°51' E 014°16'0 0.0
2019-Feb-15 07:30N 40°50' E 014°16'2 4.3
2019-Feb-15 07:00N 40°49' E 014°17'3 6.1
2019-Feb-15 06:30N 40°47' E 014°15'4 8.0
2019-Feb-15 06:00N 40°44' E 014°11'4 8.1
2019-Feb-15 05:30N 40°43' E 014°06'4 8.1
2019-Feb-15 04:59N 40°41' E 014°01'4 8.2
2019-Feb-15 04:30N 40°39' E 013°56'4 8.0
2019-Feb-15 04:00N 40°39' E 013°50'4 8.5
2019-Feb-15 03:30N 40°42' E 013°46'7 8.3
2019-Feb-15 02:39N 40°46' E 013°38'1 8.0
2019-Feb-15 02:30N 40°47' E 013°37'4 8.1
2019-Feb-15 02:00N 40°49' E 013°33'4 8.0
2019-Feb-15 01:30N 40°50' E 013°28'5 8.2
2019-Feb-15 00:56N 40°51' E 013°22'4 8.0
2019-Feb-15 00:29N 40°52' E 013°17'  
2019-Feb-12 11:28N 40°44' E 013°43'3 6.9
2019-Feb-12 10:59N 40°42' E 013°47'3 6.8
2019-Feb-12 10:30N 40°41' E 013°51'3 6.7
2019-Feb-12 10:00N 40°40' E 013°55'4 7.4
2019-Feb-12 09:30N 40°41' E 013°60'4 7.5
2019-Feb-12 09:00N 40°43' E 014°04'4 7.4
2019-Feb-12 08:30N 40°44' E 014°09'4 7.7
2019-Feb-12 08:00N 40°47' E 014°13'4 7.7
2019-Feb-12 07:30N 40°50' E 014°16'1 1.8
2019-Feb-12 06:55N 40°51' E 014°16'0 0.0
2019-Feb-12 06:25N 40°51' E 014°16'0 0.0
2019-Feb-12 05:52N 40°51' E 014°16'0 0.0
2019-Feb-12 05:22N 40°51' E 014°16'0 0.0
2019-Feb-12 04:58N 40°51' E 014°16'0 0.0
2019-Feb-12 04:28N 40°51' E 014°16'0 0.0
2019-Feb-12 03:40N 40°51' E 014°16'0 0.0
2019-Feb-12 03:13N 40°51' E 014°16'0 0.0
2019-Feb-12 02:55N 40°51' E 014°16'0 0.0
2019-Feb-12 02:25N 40°51' E 014°16'0 0.0
2019-Feb-12 01:58N 40°51' E 014°16'0 0.0
2019-Feb-12 01:13N 40°51' E 014°16'0 0.0
2019-Feb-12 00:58N 40°51' E 014°16'0 0.0
2019-Feb-12 00:01N 40°51' E 014°16'0 0.0
2019-Feb-11 23:49N 40°51' E 014°16'0 0.0
2019-Feb-11 23:19N 40°51' E 014°16'0 0.0
2019-Feb-11 22:49N 40°51' E 014°16'0 0.0
2019-Feb-11 22:19N 40°51' E 014°16'0 0.0
2019-Feb-11 21:49N 40°51' E 014°16'0 0.0
2019-Feb-11 21:19N 40°51' E 014°16'0 0.0
2019-Feb-11 20:52N 40°51' E 014°16'0 0.0
2019-Feb-11 20:19N 40°51' E 014°16'0 0.0
2019-Feb-11 19:52N 40°51' E 014°16'0 0.0
2019-Feb-11 19:19N 40°51' E 014°16'0 0.0
2019-Feb-11 18:52N 40°51' E 014°16'0 0.0
2019-Feb-11 18:25N 40°51' E 014°16'0 0.0
2019-Feb-11 17:55N 40°51' E 014°16'0 0.0
2019-Feb-11 17:25N 40°51' E 014°16'0 0.0
2019-Feb-11 16:55N 40°51' E 014°16'0 0.0
2019-Feb-11 16:25N 40°51' E 014°16'0 0.0
2019-Feb-11 15:55N 40°51' E 014°16'0 0.0
2019-Feb-11 15:25N 40°51' E 014°16'0 0.0
2019-Feb-11 14:52N 40°51' E 014°16'0 0.0
2019-Feb-11 14:28N 40°51' E 014°16'0 0.0
2019-Feb-11 13:43N 40°51' E 014°16'0 0.0
2019-Feb-11 13:28N 40°51' E 014°16'0 0.0
2019-Feb-11 12:55N 40°51' E 014°16'0 0.0
2019-Feb-11 12:28N 40°51' E 014°16'0 0.0
2019-Feb-11 11:58N 40°51' E 014°16'0 0.0
2019-Feb-11 11:28N 40°51' E 014°16'0 0.0
2019-Feb-11 10:46N 40°51' E 014°16'0 0.0
2019-Feb-11 10:28N 40°51' E 014°16'0 0.0
2019-Feb-11 09:49N 40°51' E 014°16'0 0.0
2019-Feb-11 09:28N 40°51' E 014°16'0 0.0
2019-Feb-11 08:49N 40°51' E 014°16'0 0.0
2019-Feb-11 08:16N 40°51' E 014°16'0 0.0
2019-Feb-11 07:49N 40°51' E 014°16'0 0.0
2019-Feb-11 07:19N 40°51' E 014°16'0 0.0
2019-Feb-11 06:49N 40°51' E 014°16'0 0.0
2019-Feb-11 05:49N 40°51' E 014°16'0 0.0
2019-Feb-11 05:19N 40°51' E 014°16'0 0.0
2019-Feb-11 04:52N 40°51' E 014°16'0 0.0
2019-Feb-11 04:25N 40°51' E 014°16'0 0.0
2019-Feb-11 03:55N 40°51' E 014°16'0 0.0
2019-Feb-11 03:25N 40°51' E 014°16'0 0.0
2019-Feb-11 02:55N 40°51' E 014°16'0 0.0
2019-Feb-11 02:25N 40°51' E 014°16'0 0.0
2019-Feb-11 01:55N 40°51' E 014°16'0 0.0
2019-Feb-11 01:28N 40°51' E 014°16'0 0.0
2019-Feb-11 00:58N 40°51' E 014°16'0 0.0
2019-Feb-11 00:28N 40°51' E 014°16'0 0.0
2019-Feb-10 23:58N 40°51' E 014°16'0 0.0
2019-Feb-10 23:28N 40°51' E 014°16'0 0.0
2019-Feb-10 22:58N 40°51' E 014°16'0 0.0
2019-Feb-10 22:25N 40°51' E 014°16'0 0.0
2019-Feb-10 21:58N 40°51' E 014°16'0 0.0
2019-Feb-10 21:28N 40°51' E 014°16'0 0.0
2019-Feb-10 20:58N 40°51' E 014°16'0 0.0
2019-Feb-10 20:28N 40°51' E 014°16'0 0.0
2019-Feb-10 19:58N 40°51' E 014°16'0 0.0
2019-Feb-10 19:28N 40°51' E 014°16'0 0.0
2019-Feb-10 18:46N 40°51' E 014°16'0 0.0
2019-Feb-10 18:25N 40°51' E 014°16'0 0.0
2019-Feb-10 17:55N 40°51' E 014°16'0 0.0
2019-Feb-10 17:25N 40°51' E 014°16'0 0.0
2019-Feb-10 16:55N 40°51' E 014°16'0 0.0
2019-Feb-10 16:25N 40°51' E 014°16'0 0.0
2019-Feb-10 15:58N 40°51' E 014°16'0 0.0
2019-Feb-10 15:28N 40°51' E 014°16'0 0.0
2019-Feb-10 14:43N 40°51' E 014°16'0 0.0
2019-Feb-10 14:25N 40°51' E 014°16'0 0.0
2019-Feb-10 13:46N 40°51' E 014°16'0 0.0
2019-Feb-10 13:25N 40°51' E 014°16'0 0.0
2019-Feb-10 12:55N 40°51' E 014°16'0 0.0
2019-Feb-10 12:28N 40°51' E 014°16'0 0.0
2019-Feb-10 11:58N 40°51' E 014°16'0 0.0
2019-Feb-10 11:19N 40°51' E 014°16'0 0.0
2019-Feb-10 10:58N 40°51' E 014°16'0 0.0
2019-Feb-10 10:28N 40°51' E 014°16'0 0.0
2019-Feb-10 09:49N 40°51' E 014°16'0 0.0
2019-Feb-10 09:19N 40°51' E 014°16'0 0.0
2019-Feb-10 08:49N 40°51' E 014°16'0 0.0
2019-Feb-10 08:19N 40°51' E 014°16'0 0.0
2019-Feb-10 07:46N 40°51' E 014°16'0 0.0
2019-Feb-10 07:22N 40°51' E 014°16'0 0.0
2019-Feb-10 07:01N 40°51' E 014°16'2 3.7
2019-Feb-10 06:30N 40°49' E 014°17'3 6.9
2019-Feb-10 06:01N 40°46' E 014°15'4 7.2
2019-Feb-10 05:31N 40°45' E 014°11'4 7.2
2019-Feb-10 05:00N 40°43' E 014°06'4 7.3
2019-Feb-10 04:31N 40°41' E 014°02'4 7.1
2019-Feb-10 04:00N 40°40' E 013°58'3 6.8
2019-Feb-10 03:31N 40°40' E 013°53'3 6.6
2019-Feb-10 03:00N 40°41' E 013°49'3 6.8
2019-Feb-10 02:30N 40°43' E 013°45'5 6.7
2019-Feb-10 01:49N 40°45' E 013°40'2 6.7
2019-Feb-10 01:30N 40°46' E 013°38'4 6.8
2019-Feb-10 00:58N 40°48' E 013°33'  

Dump ship's entire track history